createdAt,value
2019-02-04T00:00:51.118Z,891.40
2019-02-04T00:01:51.093Z,891.41
2019-02-04T00:02:51.081Z,891.41
2019-02-04T00:03:51.059Z,891.43
2019-02-04T00:04:51.030Z,891.43
2019-02-04T00:05:51.019Z,891.45
2019-02-04T00:06:50.996Z,891.46
2019-02-04T00:07:50.979Z,891.50
2019-02-04T00:08:50.958Z,891.50
2019-02-04T00:09:50.939Z,891.54
2019-02-04T00:10:50.918Z,891.55
2019-02-04T00:11:50.898Z,891.58
2019-02-04T00:12:50.881Z,891.56
2019-02-04T00:13:50.860Z,891.58
2019-02-04T00:14:50.850Z,891.58
2019-02-04T00:15:50.816Z,891.63
2019-02-04T00:16:50.800Z,891.63
2019-02-04T00:17:50.780Z,891.65
2019-02-04T00:18:50.763Z,891.67
2019-02-04T00:19:50.739Z,891.67
2019-02-04T00:20:50.725Z,891.68
2019-02-04T00:21:50.698Z,891.68
2019-02-04T00:22:50.679Z,891.67
2019-02-04T00:23:50.666Z,891.68
2019-02-04T00:24:50.642Z,891.68
2019-02-04T00:25:50.622Z,891.71
2019-02-04T00:26:51.873Z,891.71
2019-02-04T00:27:50.581Z,891.70
2019-02-04T00:28:50.574Z,891.71
2019-02-04T00:29:50.540Z,891.69
2019-02-04T00:30:50.519Z,891.71
2019-02-04T00:31:50.504Z,891.70
2019-02-04T00:32:50.485Z,891.69
2019-02-04T00:33:50.460Z,891.71
2019-02-04T00:34:50.441Z,891.69
2019-02-04T00:35:50.424Z,891.77
2019-02-04T00:36:50.405Z,891.77
2019-02-04T00:37:50.388Z,891.78
2019-02-04T00:38:50.380Z,891.74
2019-02-04T00:39:50.343Z,891.76
2019-02-04T00:40:50.324Z,891.74
2019-02-04T00:41:50.307Z,891.73
2019-02-04T00:42:50.284Z,891.76
2019-02-04T00:43:50.272Z,891.74
2019-02-04T00:44:50.246Z,891.75
2019-02-04T00:45:50.226Z,891.70
2019-02-04T00:46:52.150Z,891.75
2019-02-04T00:47:50.188Z,891.73
2019-02-04T00:48:50.166Z,891.74
2019-02-04T00:49:50.175Z,891.73
2019-02-04T00:50:50.127Z,891.74
2019-02-04T00:51:50.108Z,891.76
2019-02-04T00:52:50.092Z,891.75
2019-02-04T00:53:50.065Z,891.74
2019-02-04T00:54:50.047Z,891.74
2019-02-04T00:55:50.031Z,891.79
2019-02-04T00:56:50.009Z,891.76
2019-02-04T00:57:49.985Z,891.80
2019-02-04T00:58:49.967Z,891.79
2019-02-04T00:59:49.952Z,891.83
2019-02-04T01:00:49.930Z,891.81
2019-02-04T01:01:49.910Z,891.82
2019-02-04T01:02:49.892Z,891.84
2019-02-04T01:03:49.870Z,891.82
2019-02-04T01:04:49.858Z,891.83
2019-02-04T01:05:49.837Z,891.84
2019-02-04T01:06:49.810Z,891.85
2019-02-04T01:07:49.789Z,891.87
2019-02-04T01:08:49.776Z,891.86
2019-02-04T01:09:49.756Z,891.84
2019-02-04T01:10:49.734Z,891.88
2019-02-04T01:11:49.720Z,891.87
2019-02-04T01:12:49.685Z,891.84
2019-02-04T01:13:49.674Z,891.87
2019-02-04T01:14:49.655Z,891.85
2019-02-04T01:15:49.638Z,891.90
2019-02-04T01:16:49.610Z,891.88
2019-02-04T01:17:49.592Z,891.90
2019-02-04T01:18:49.573Z,891.90
2019-02-04T01:19:49.550Z,891.90
2019-02-04T01:20:49.530Z,891.90
2019-02-04T01:21:49.514Z,891.90
2019-02-04T01:22:49.497Z,891.90
2019-02-04T01:23:49.479Z,891.91
2019-02-04T01:24:49.451Z,891.87
2019-02-04T01:25:49.435Z,891.90
2019-02-04T01:26:49.413Z,891.89
2019-02-04T01:27:49.396Z,891.87
2019-02-04T01:28:49.378Z,891.88
2019-02-04T01:29:49.360Z,891.88
2019-02-04T01:30:49.338Z,891.84
2019-02-04T01:31:49.324Z,891.88
2019-02-04T01:32:49.298Z,891.88
2019-02-04T01:33:49.278Z,891.85
2019-02-04T01:34:49.263Z,891.88
2019-02-04T01:35:49.237Z,891.88
2019-02-04T01:36:49.217Z,891.88
2019-02-04T01:37:49.197Z,891.94
2019-02-04T01:38:49.179Z,891.90
2019-02-04T01:39:49.156Z,891.87
2019-02-04T01:40:49.136Z,891.91
2019-02-04T01:41:49.118Z,891.91
2019-02-04T01:42:49.098Z,891.95
2019-02-04T01:43:49.076Z,891.96
2019-02-04T01:44:49.058Z,891.97
2019-02-04T01:45:49.041Z,891.97
2019-02-04T01:46:51.516Z,891.95
2019-02-04T01:47:48.996Z,891.98
2019-02-04T01:48:48.977Z,891.97
2019-02-04T01:49:48.960Z,891.94
2019-02-04T01:50:48.942Z,891.93
2019-02-04T01:51:48.920Z,891.95
2019-02-04T01:52:48.901Z,891.93
2019-02-04T01:53:48.883Z,891.93
2019-02-04T01:54:48.861Z,891.95
2019-02-04T01:55:48.844Z,891.93
2019-02-04T01:56:48.824Z,891.93
2019-02-04T01:57:48.803Z,891.90
2019-02-04T01:58:48.786Z,891.92
2019-02-04T01:59:48.762Z,891.88
2019-02-04T02:00:48.742Z,891.90
2019-02-04T02:01:48.717Z,891.91
2019-02-04T02:02:48.703Z,891.89
2019-02-04T02:03:48.684Z,891.93
2019-02-04T02:04:48.659Z,891.92
2019-02-04T02:05:48.643Z,891.91
2019-02-04T02:06:48.648Z,891.91
2019-02-04T02:07:48.604Z,891.87
2019-02-04T02:08:48.585Z,891.92
2019-02-04T02:09:48.562Z,891.89
2019-02-04T02:10:48.540Z,891.92
2019-02-04T02:11:48.521Z,891.91
2019-02-04T02:12:48.503Z,891.92
2019-02-04T02:13:48.483Z,891.92
2019-02-04T02:14:48.457Z,891.91
2019-02-04T02:15:48.440Z,891.95
2019-02-04T02:16:48.421Z,891.90
2019-02-04T02:17:48.408Z,891.93
2019-02-04T02:18:48.385Z,891.90
2019-02-04T02:19:48.358Z,891.89
2019-02-04T02:20:48.341Z,891.81
2019-02-04T02:21:48.327Z,891.84
2019-02-04T02:22:48.302Z,891.81
2019-02-04T02:23:48.282Z,891.82
2019-02-04T02:24:48.264Z,891.80
2019-02-04T02:25:48.243Z,891.77
2019-02-04T02:26:48.226Z,891.75
2019-02-04T02:27:48.200Z,891.76
2019-02-04T02:28:48.182Z,891.76
2019-02-04T02:29:48.155Z,891.76
2019-02-04T02:30:48.140Z,891.72
2019-02-04T02:31:48.117Z,891.71
2019-02-04T02:32:48.124Z,891.67
2019-02-04T02:33:48.080Z,891.68
2019-02-04T02:34:48.082Z,891.72
2019-02-04T02:35:48.061Z,891.68
2019-02-04T02:36:48.025Z,891.71
2019-02-04T02:37:48.000Z,891.66
2019-02-04T02:38:47.983Z,891.68
2019-02-04T02:39:47.964Z,891.66
2019-02-04T02:40:47.942Z,891.60
2019-02-04T02:41:47.917Z,891.62
2019-02-04T02:42:47.897Z,891.63
2019-02-04T02:43:47.879Z,891.62
2019-02-04T02:44:47.854Z,891.62
2019-02-04T02:45:47.838Z,891.60
2019-02-04T02:46:47.817Z,891.58
2019-02-04T02:47:47.802Z,891.54
2019-02-04T02:48:47.778Z,891.55
2019-02-04T02:49:47.758Z,891.52
2019-02-04T02:50:47.738Z,891.52
2019-02-04T02:51:47.719Z,891.53
2019-02-04T02:52:47.701Z,891.52
2019-02-04T02:53:47.683Z,891.50
2019-02-04T02:54:47.661Z,891.53
2019-02-04T02:55:47.638Z,891.56
2019-02-04T02:56:47.624Z,891.57
2019-02-04T02:57:47.653Z,891.58
2019-02-04T02:58:47.579Z,891.62
2019-02-04T02:59:47.552Z,891.62
2019-02-04T03:00:47.542Z,891.59
2019-02-04T03:01:47.519Z,891.61
2019-02-04T03:02:47.510Z,891.64
2019-02-04T03:03:47.482Z,891.64
2019-02-04T03:04:47.463Z,891.69
2019-02-04T03:05:47.438Z,891.72
2019-02-04T03:06:47.423Z,891.68
2019-02-04T03:07:47.399Z,891.71
2019-02-04T03:08:47.381Z,891.70
2019-02-04T03:09:47.362Z,891.73
2019-02-04T03:10:47.343Z,891.76
2019-02-04T03:11:47.322Z,891.75
2019-02-04T03:12:47.298Z,891.77
2019-02-04T03:13:47.283Z,891.77
2019-02-04T03:14:47.268Z,891.76
2019-02-04T03:15:47.253Z,891.76
2019-02-04T03:16:47.216Z,891.79
2019-02-04T03:17:52.174Z,891.81
2019-02-04T03:18:47.181Z,891.83
2019-02-04T03:19:47.157Z,891.82
2019-02-04T03:20:47.235Z,891.88
2019-02-04T03:21:47.121Z,891.88
2019-02-04T03:22:47.100Z,891.91
2019-02-04T03:23:47.083Z,891.93
2019-02-04T03:24:47.064Z,891.90
2019-02-04T03:25:47.036Z,891.95
2019-02-04T03:26:47.022Z,891.97
2019-02-04T03:27:46.999Z,891.92
2019-02-04T03:28:46.983Z,891.96
2019-02-04T03:29:46.955Z,891.95
2019-02-04T03:30:46.944Z,891.97
2019-02-04T03:31:46.926Z,891.93
2019-02-04T03:32:46.966Z,891.94
2019-02-04T03:33:46.876Z,891.99
2019-02-04T03:34:46.863Z,891.98
2019-02-04T03:35:46.836Z,892.00
2019-02-04T03:36:46.823Z,891.97
2019-02-04T03:37:46.796Z,892.00
2019-02-04T03:38:46.777Z,891.99
2019-02-04T03:39:46.753Z,892.01
2019-02-04T03:40:46.732Z,892.01
2019-02-04T03:41:46.715Z,892.01
2019-02-04T03:42:46.698Z,892.03
2019-02-04T03:43:46.674Z,892.07
2019-02-04T03:44:46.655Z,892.12
2019-02-04T03:45:46.637Z,892.16
2019-02-04T03:46:46.621Z,892.19
2019-02-04T03:47:46.597Z,892.23
2019-02-04T03:48:46.577Z,892.23
2019-02-04T03:49:46.556Z,892.24
2019-02-04T03:50:46.541Z,892.23
2019-02-04T03:51:46.513Z,892.27
2019-02-04T03:52:46.498Z,892.25
2019-02-04T03:53:46.476Z,892.26
2019-02-04T03:54:46.456Z,892.32
2019-02-04T03:55:46.445Z,892.30
2019-02-04T03:56:46.418Z,892.31
2019-02-04T03:57:46.397Z,892.36
2019-02-04T03:58:46.376Z,892.35
2019-02-04T03:59:46.355Z,892.30
2019-02-04T04:00:46.337Z,892.32
2019-02-04T04:01:46.320Z,892.30
2019-02-04T04:02:46.294Z,892.35
2019-02-04T04:03:46.276Z,892.33
2019-02-04T04:04:46.256Z,892.35
2019-02-04T04:05:46.236Z,892.34
2019-02-04T04:06:46.214Z,892.32
2019-02-04T04:07:46.302Z,892.37
2019-02-04T04:08:46.174Z,892.42
2019-02-04T04:09:46.155Z,892.34
2019-02-04T04:10:46.135Z,892.37
2019-02-04T04:11:46.114Z,892.36
2019-02-04T04:12:46.098Z,892.37
2019-02-04T04:13:46.072Z,892.41
2019-02-04T04:14:46.050Z,892.41
2019-02-04T04:15:46.036Z,892.40
2019-02-04T04:16:46.014Z,892.36
2019-02-04T04:17:45.995Z,892.42
2019-02-04T04:18:45.993Z,892.42
2019-02-04T04:19:45.960Z,892.41
2019-02-04T04:20:45.934Z,892.39
2019-02-04T04:21:45.907Z,892.38
2019-02-04T04:22:45.892Z,892.40
2019-02-04T04:23:45.873Z,892.36
2019-02-04T04:24:45.848Z,892.39
2019-02-04T04:25:45.830Z,892.38
2019-02-04T04:26:45.811Z,892.39
2019-02-04T04:27:45.795Z,892.38
2019-02-04T04:28:45.774Z,892.36
2019-02-04T04:29:45.754Z,892.35
2019-02-04T04:30:45.732Z,892.39
2019-02-04T04:31:45.716Z,892.37
2019-02-04T04:32:45.689Z,892.31
2019-02-04T04:33:45.677Z,892.32
2019-02-04T04:34:45.652Z,892.31
2019-02-04T04:35:45.643Z,892.33
2019-02-04T04:36:45.613Z,892.37
2019-02-04T04:37:45.594Z,892.31
2019-02-04T04:38:45.570Z,892.35
2019-02-04T04:39:45.552Z,892.37
2019-02-04T04:40:45.530Z,892.36
2019-02-04T04:41:45.514Z,892.42
2019-02-04T04:42:45.488Z,892.38
2019-02-04T04:43:45.470Z,892.37
2019-02-04T04:44:45.452Z,892.39
2019-02-04T04:45:45.432Z,892.43
2019-02-04T04:46:45.415Z,892.45
2019-02-04T04:47:45.391Z,892.42
2019-02-04T04:48:45.371Z,892.46
2019-02-04T04:49:45.349Z,892.51
2019-02-04T04:50:45.327Z,892.52
2019-02-04T04:51:45.312Z,892.55
2019-02-04T04:52:45.294Z,892.62
2019-02-04T04:53:45.280Z,892.61
2019-02-04T04:54:45.254Z,892.59
2019-02-04T04:55:45.232Z,892.61
2019-02-04T04:56:45.215Z,892.59
2019-02-04T04:57:45.184Z,892.59
2019-02-04T04:58:45.173Z,892.62
2019-02-04T04:59:45.143Z,892.61
2019-02-04T05:00:45.127Z,892.65
2019-02-04T05:01:45.108Z,892.62
2019-02-04T05:02:45.089Z,892.66
2019-02-04T05:03:45.071Z,892.64
2019-02-04T05:04:45.049Z,892.65
2019-02-04T05:05:45.027Z,892.68
2019-02-04T05:06:45.007Z,892.66
2019-02-04T05:07:44.986Z,892.70
2019-02-04T05:08:44.970Z,892.67
2019-02-04T05:09:44.946Z,892.73
2019-02-04T05:10:44.928Z,892.72
2019-02-04T05:11:44.914Z,892.71
2019-02-04T05:12:44.885Z,892.75
2019-02-04T05:13:44.873Z,892.74
2019-02-04T05:14:44.847Z,892.74
2019-02-04T05:15:44.828Z,892.75
2019-02-04T05:16:44.806Z,892.78
2019-02-04T05:17:44.785Z,892.79
2019-02-04T05:18:44.761Z,892.79
2019-02-04T05:19:44.746Z,892.80
2019-02-04T05:20:44.721Z,892.86
2019-02-04T05:21:44.709Z,892.85
2019-02-04T05:22:44.681Z,892.89
2019-02-04T05:23:44.669Z,892.92
2019-02-04T05:24:44.640Z,892.95
2019-02-04T05:25:44.625Z,892.94
2019-02-04T05:26:44.603Z,893.02
2019-02-04T05:27:44.581Z,893.04
2019-02-04T05:28:44.562Z,893.04
2019-02-04T05:29:44.546Z,893.07
2019-02-04T05:30:44.516Z,893.05
2019-02-04T05:31:44.503Z,893.08
2019-02-04T05:32:44.479Z,893.07
2019-02-04T05:33:44.460Z,893.09
2019-02-04T05:34:44.437Z,893.12
2019-02-04T05:35:44.424Z,893.13
2019-02-04T05:36:44.397Z,893.14
2019-02-04T05:37:44.380Z,893.17
2019-02-04T05:38:44.355Z,893.19
2019-02-04T05:39:44.340Z,893.18
2019-02-04T05:40:44.318Z,893.17
2019-02-04T05:41:44.310Z,893.16
2019-02-04T05:42:44.282Z,893.17
2019-02-04T05:43:44.260Z,893.22
2019-02-04T05:44:44.234Z,893.19
2019-02-04T05:45:44.211Z,893.20
2019-02-04T05:46:44.196Z,893.21
2019-02-04T05:47:44.175Z,893.25
2019-02-04T05:48:49.530Z,893.22
2019-02-04T05:49:44.133Z,893.24
2019-02-04T05:50:44.119Z,893.27
2019-02-04T05:51:44.098Z,893.26
2019-02-04T05:52:44.084Z,893.24
2019-02-04T05:53:44.094Z,893.20
2019-02-04T05:54:44.042Z,893.18
2019-02-04T05:55:44.009Z,893.15
2019-02-04T05:56:43.993Z,893.14
2019-02-04T05:57:43.976Z,893.16
2019-02-04T05:58:43.951Z,893.17
2019-02-04T05:59:43.929Z,893.16
2019-02-04T06:00:43.914Z,893.20
2019-02-04T06:01:43.890Z,893.19
2019-02-04T06:02:43.875Z,893.16
2019-02-04T06:03:43.852Z,893.20
2019-02-04T06:04:43.836Z,893.25
2019-02-04T06:05:43.810Z,893.23
2019-02-04T06:06:43.790Z,893.22
2019-02-04T06:07:43.770Z,893.27
2019-02-04T06:08:43.746Z,893.21
2019-02-04T06:09:43.728Z,893.27
2019-02-04T06:10:43.710Z,893.23
2019-02-04T06:11:43.688Z,893.27
2019-02-04T06:12:43.665Z,893.25
2019-02-04T06:13:43.647Z,893.22
2019-02-04T06:14:43.621Z,893.26
2019-02-04T06:15:43.605Z,893.25
2019-02-04T06:16:43.585Z,893.27
2019-02-04T06:17:43.561Z,893.24
2019-02-04T06:18:43.548Z,893.24
2019-02-04T06:19:43.525Z,893.27
2019-02-04T06:20:43.502Z,893.26
2019-02-04T06:21:43.482Z,893.25
2019-02-04T06:22:43.473Z,893.26
2019-02-04T06:23:43.442Z,893.26
2019-02-04T06:24:43.420Z,893.27
2019-02-04T06:25:43.402Z,893.25
2019-02-04T06:26:43.380Z,893.26
2019-02-04T06:27:43.373Z,893.24
2019-02-04T06:28:43.339Z,893.29
2019-02-04T06:29:43.318Z,893.29
2019-02-04T06:30:43.293Z,893.35
2019-02-04T06:31:43.276Z,893.36
2019-02-04T06:32:43.257Z,893.34
2019-02-04T06:33:43.237Z,893.33
2019-02-04T06:34:43.212Z,893.38
2019-02-04T06:35:43.194Z,893.31
2019-02-04T06:36:43.172Z,893.37
2019-02-04T06:37:43.152Z,893.39
2019-02-04T06:38:43.131Z,893.41
2019-02-04T06:39:43.111Z,893.43
2019-02-04T06:40:43.093Z,893.43
2019-02-04T06:41:43.068Z,893.45
2019-02-04T06:42:43.050Z,893.47
2019-02-04T06:43:43.031Z,893.47
2019-02-04T06:44:43.005Z,893.50
2019-02-04T06:45:45.838Z,893.52
2019-02-04T06:46:42.965Z,893.52
2019-02-04T06:47:42.947Z,893.54
2019-02-04T06:48:42.929Z,893.53
2019-02-04T06:49:42.901Z,893.58
2019-02-04T06:50:42.877Z,893.59
2019-02-04T06:51:42.861Z,893.56
2019-02-04T06:52:42.836Z,893.58
2019-02-04T06:53:42.824Z,893.54
2019-02-04T06:54:42.802Z,893.59
2019-02-04T06:55:42.780Z,893.61
2019-02-04T06:56:42.756Z,893.61
2019-02-04T06:57:42.843Z,893.61
2019-02-04T06:58:42.718Z,893.68
2019-02-04T06:59:42.695Z,893.65
2019-02-04T07:00:42.673Z,893.65
2019-02-04T07:01:42.656Z,893.70
2019-02-04T07:02:42.642Z,893.73
2019-02-04T07:03:42.607Z,893.70
2019-02-04T07:04:42.595Z,893.70
2019-02-04T07:05:44.106Z,893.71
2019-02-04T07:06:42.550Z,893.68
2019-02-04T07:07:42.530Z,893.68
2019-02-04T07:08:42.508Z,893.71
2019-02-04T07:09:42.488Z,893.73
2019-02-04T07:10:42.461Z,893.73
2019-02-04T07:11:42.451Z,893.74
2019-02-04T07:12:42.421Z,893.74
2019-02-04T07:13:42.780Z,893.74
2019-02-04T07:14:42.385Z,893.75
2019-02-04T07:15:42.363Z,893.74
2019-02-04T07:16:42.336Z,893.72
2019-02-04T07:17:42.322Z,893.71
2019-02-04T07:18:42.300Z,893.72
2019-02-04T07:19:42.280Z,893.73
2019-02-04T07:20:42.255Z,893.66
2019-02-04T07:21:42.237Z,893.74
2019-02-04T07:22:42.214Z,893.68
2019-02-04T07:23:42.198Z,893.65
2019-02-04T07:24:43.187Z,893.72
2019-02-04T07:25:42.158Z,893.64
2019-02-04T07:26:42.132Z,893.69
2019-02-04T07:27:42.109Z,893.65
2019-02-04T07:28:42.091Z,893.65
2019-02-04T07:29:42.065Z,893.70
2019-02-04T07:30:42.051Z,893.70
2019-02-04T07:31:42.028Z,893.71
2019-02-04T07:32:42.010Z,893.69
2019-02-04T07:33:41.986Z,893.74
2019-02-04T07:34:41.966Z,893.72
2019-02-04T07:35:41.945Z,893.73
2019-02-04T07:36:41.930Z,893.74
2019-02-04T07:37:41.902Z,893.73
2019-02-04T07:38:41.886Z,893.73
2019-02-04T07:39:41.863Z,893.76
2019-02-04T07:40:41.839Z,893.73
2019-02-04T07:41:41.818Z,893.73
2019-02-04T07:42:41.795Z,893.76
2019-02-04T07:43:41.773Z,893.73
2019-02-04T07:44:41.754Z,893.73
2019-02-04T07:45:41.729Z,893.72
2019-02-04T07:46:41.709Z,893.71
2019-02-04T07:47:41.688Z,893.73
2019-02-04T07:48:41.666Z,893.72
2019-02-04T07:49:41.648Z,893.73
2019-02-04T07:50:41.628Z,893.71
2019-02-04T07:51:41.602Z,893.69
2019-02-04T07:52:41.584Z,893.73
2019-02-04T07:53:41.564Z,893.70
2019-02-04T07:54:41.540Z,893.73
2019-02-04T07:55:41.519Z,893.66
2019-02-04T07:56:41.496Z,893.73
2019-02-04T07:57:41.471Z,893.69
2019-02-04T07:58:41.451Z,893.69
2019-02-04T07:59:41.432Z,893.67
2019-02-04T08:00:41.413Z,893.68
2019-02-04T08:01:41.518Z,893.61
2019-02-04T08:02:41.366Z,893.63
2019-02-04T08:03:41.353Z,893.63
2019-02-04T08:04:41.325Z,893.65
2019-02-04T08:05:41.315Z,893.64
2019-02-04T08:06:41.285Z,893.67
2019-02-04T08:07:41.263Z,893.68
2019-02-04T08:08:41.248Z,893.72
2019-02-04T08:09:41.220Z,893.77
2019-02-04T08:10:41.196Z,893.81
2019-02-04T08:11:41.171Z,893.85
2019-02-04T08:12:41.155Z,893.85
2019-02-04T08:13:41.134Z,893.92
2019-02-04T08:14:41.114Z,893.89
2019-02-04T08:15:41.091Z,893.89
2019-02-04T08:16:41.066Z,893.87
2019-02-04T08:17:41.050Z,893.86
2019-02-04T08:18:41.029Z,893.81
2019-02-04T08:19:46.988Z,893.85
2019-02-04T08:20:40.983Z,893.83
2019-02-04T08:21:40.964Z,893.86
2019-02-04T08:22:40.943Z,893.86
2019-02-04T08:23:40.929Z,893.90
2019-02-04T08:24:40.899Z,893.92
2019-02-04T08:25:40.880Z,893.90
2019-02-04T08:26:40.927Z,893.90
2019-02-04T08:27:40.840Z,893.94
2019-02-04T08:28:40.820Z,893.93
2019-02-04T08:29:40.800Z,893.88
2019-02-04T08:30:40.786Z,893.88
2019-02-04T08:31:40.755Z,893.89
2019-02-04T08:32:40.734Z,893.91
2019-02-04T08:33:40.709Z,893.88
2019-02-04T08:34:40.692Z,893.86
2019-02-04T08:35:40.674Z,893.88
2019-02-04T08:36:44.317Z,893.89
2019-02-04T08:37:40.638Z,893.87
2019-02-04T08:38:40.617Z,893.89
2019-02-04T08:39:40.599Z,893.82
2019-02-04T08:40:40.574Z,893.86
2019-02-04T08:41:40.556Z,893.86
2019-02-04T08:42:40.540Z,893.85
2019-02-04T08:43:40.517Z,893.88
2019-02-04T08:44:40.487Z,893.87
2019-02-04T08:45:40.473Z,893.84
2019-02-04T08:46:40.459Z,893.88
2019-02-04T08:47:40.438Z,893.86
2019-02-04T08:48:40.439Z,893.93
2019-02-04T08:49:40.399Z,893.93
2019-02-04T08:50:40.379Z,893.90
2019-02-04T08:51:40.366Z,893.94
2019-02-04T08:52:40.336Z,893.90
2019-02-04T08:53:40.324Z,893.95
2019-02-04T08:54:40.306Z,893.96
2019-02-04T08:55:40.280Z,893.95
2019-02-04T08:56:42.951Z,893.99
2019-02-04T08:57:40.249Z,894.00
2019-02-04T08:58:40.227Z,894.00
2019-02-04T08:59:40.205Z,894.01
2019-02-04T09:00:40.186Z,893.96
2019-02-04T09:01:40.166Z,894.02
2019-02-04T09:02:40.156Z,893.99
2019-02-04T09:03:40.133Z,893.94
2019-02-04T09:04:40.118Z,893.95
2019-02-04T09:05:40.096Z,893.95
2019-02-04T09:06:40.071Z,893.94
2019-02-04T09:07:40.062Z,893.98
2019-02-04T09:08:40.035Z,893.97
2019-02-04T09:09:40.015Z,893.97
2019-02-04T09:10:40.001Z,893.95
2019-02-04T09:11:39.983Z,893.96
2019-02-04T09:12:39.967Z,893.96
2019-02-04T09:13:39.943Z,893.96
2019-02-04T09:14:39.931Z,893.99
2019-02-04T09:15:39.936Z,893.99
2019-02-04T09:16:39.887Z,893.97
2019-02-04T09:17:39.871Z,893.98
2019-02-04T09:18:44.941Z,894.00
2019-02-04T09:19:39.832Z,893.92
2019-02-04T09:20:39.813Z,893.91
2019-02-04T09:21:39.798Z,893.91
2019-02-04T09:22:39.777Z,893.85
2019-02-04T09:23:39.751Z,893.88
2019-02-04T09:24:39.743Z,893.87
2019-02-04T09:25:39.721Z,893.92
2019-02-04T09:26:39.707Z,893.89
2019-02-04T09:27:39.683Z,893.81
2019-02-04T09:28:39.669Z,893.82
2019-02-04T09:29:39.651Z,893.83
2019-02-04T09:30:39.628Z,893.83
2019-02-04T09:31:39.614Z,893.82
2019-02-04T09:32:39.596Z,893.85
2019-02-04T09:33:39.580Z,893.82
2019-02-04T09:34:39.557Z,893.84
2019-02-04T09:35:39.549Z,893.82
2019-02-04T09:36:39.522Z,893.90
2019-02-04T09:37:39.509Z,893.89
2019-02-04T09:38:39.484Z,893.90
2019-02-04T09:39:39.465Z,893.85
2019-02-04T09:40:39.447Z,893.78
2019-02-04T09:41:39.429Z,893.77
2019-02-04T09:42:39.419Z,893.76
2019-02-04T09:43:39.392Z,893.77
2019-02-04T09:44:39.385Z,893.68
2019-02-04T09:45:39.361Z,893.66
2019-02-04T09:46:39.339Z,893.62
2019-02-04T09:47:39.320Z,893.60
2019-02-04T09:48:39.303Z,893.55
2019-02-04T09:49:39.285Z,893.55
2019-02-04T09:50:39.264Z,893.62
2019-02-04T09:51:39.248Z,893.64
2019-02-04T09:52:39.238Z,893.67
2019-02-04T09:53:39.208Z,893.66
2019-02-04T09:54:39.192Z,893.69
2019-02-04T09:55:39.292Z,893.67
2019-02-04T09:56:39.159Z,893.66
2019-02-04T09:57:39.141Z,893.63
2019-02-04T09:58:39.118Z,893.58
2019-02-04T09:59:39.108Z,893.54
2019-02-04T10:00:39.088Z,893.54
2019-02-04T10:01:39.071Z,893.54
2019-02-04T10:02:39.054Z,893.49
2019-02-04T10:03:39.041Z,893.44
2019-02-04T10:04:39.018Z,893.43
2019-02-04T10:05:38.998Z,893.45
2019-02-04T10:06:38.981Z,893.39
2019-02-04T10:07:38.967Z,893.37
2019-02-04T10:08:38.955Z,893.34
2019-02-04T10:09:38.927Z,893.35
2019-02-04T10:10:38.918Z,893.36
2019-02-04T10:11:38.898Z,893.38
2019-02-04T10:12:38.882Z,893.35
2019-02-04T10:13:38.864Z,893.38
2019-02-04T10:14:38.846Z,893.34
2019-02-04T10:15:38.827Z,893.29
2019-02-04T10:16:38.814Z,893.30
2019-02-04T10:17:38.793Z,893.30
2019-02-04T10:18:38.794Z,893.30
2019-02-04T10:19:38.790Z,893.31
2019-02-04T10:20:38.761Z,893.30
2019-02-04T10:21:38.732Z,893.16
2019-02-04T10:22:38.708Z,893.24
2019-02-04T10:23:38.739Z,893.21
2019-02-04T10:24:38.685Z,893.22
2019-02-04T10:25:38.679Z,893.19
2019-02-04T10:26:38.772Z,893.18
2019-02-04T10:27:38.644Z,893.16
2019-02-04T10:28:38.648Z,893.09
2019-02-04T10:29:38.608Z,893.10
2019-02-04T10:30:38.620Z,893.16
2019-02-04T10:31:38.603Z,893.09
2019-02-04T10:32:38.550Z,893.09
2019-02-04T10:33:38.559Z,893.10
2019-02-04T10:34:38.551Z,893.12
2019-02-04T10:35:38.500Z,893.10
2019-02-04T10:36:38.489Z,893.11
2019-02-04T10:37:38.468Z,893.15
2019-02-04T10:38:38.460Z,893.22
2019-02-04T10:39:38.448Z,893.19
2019-02-04T10:40:38.424Z,893.21
2019-02-04T10:41:38.402Z,893.21
2019-02-04T10:42:38.391Z,893.16
2019-02-04T10:43:38.378Z,893.19
2019-02-04T10:44:38.378Z,893.21
2019-02-04T10:45:38.345Z,893.20
2019-02-04T10:46:38.345Z,893.26
2019-02-04T10:47:38.334Z,893.22
2019-02-04T10:48:38.291Z,893.26
2019-02-04T10:49:38.301Z,893.26
2019-02-04T10:50:45.792Z,893.29
2019-02-04T10:51:38.246Z,893.31
2019-02-04T10:52:38.263Z,893.25
2019-02-04T10:53:38.217Z,893.28
2019-02-04T10:54:38.201Z,893.30
2019-02-04T10:55:38.190Z,893.27
2019-02-04T10:56:38.196Z,893.30
2019-02-04T10:57:40.632Z,893.27
2019-02-04T10:58:38.138Z,893.31
2019-02-04T10:59:38.144Z,893.31
2019-02-04T11:00:38.146Z,893.30
2019-02-04T11:01:38.124Z,893.30
2019-02-04T11:02:38.076Z,893.30
2019-02-04T11:03:38.065Z,893.32
2019-02-04T11:04:38.049Z,893.33
2019-02-04T11:05:38.059Z,893.32
2019-02-04T11:06:38.040Z,893.29
2019-02-04T11:07:38.017Z,893.31
2019-02-04T11:08:37.988Z,893.31
2019-02-04T11:09:37.992Z,893.32
2019-02-04T11:10:38.003Z,893.30
2019-02-04T11:11:37.946Z,893.33
2019-02-04T11:12:37.929Z,893.32
2019-02-04T11:13:37.917Z,893.33
2019-02-04T11:14:37.930Z,893.33
2019-02-04T11:15:37.902Z,893.33
2019-02-04T11:16:37.871Z,893.34
2019-02-04T11:17:37.860Z,893.35
2019-02-04T11:18:37.866Z,893.31
2019-02-04T11:19:37.844Z,893.34
2019-02-04T11:20:37.816Z,893.30
2019-02-04T11:21:37.848Z,893.27
2019-02-04T11:22:37.899Z,893.31
2019-02-04T11:23:37.784Z,893.34
2019-02-04T11:24:37.759Z,893.34
2019-02-04T11:25:37.747Z,893.32
2019-02-04T11:26:37.731Z,893.36
2019-02-04T11:27:37.717Z,893.36
2019-02-04T11:28:37.717Z,893.32
2019-02-04T11:29:37.719Z,893.25
2019-02-04T11:30:37.678Z,893.29
2019-02-04T11:31:37.678Z,893.27
2019-02-04T11:32:37.650Z,893.25
2019-02-04T11:33:37.712Z,893.25
2019-02-04T11:34:37.623Z,893.24
2019-02-04T11:35:37.672Z,893.21
2019-02-04T11:36:37.753Z,893.19
2019-02-04T11:37:37.632Z,893.11
2019-02-04T11:38:37.606Z,893.13
2019-02-04T11:39:37.562Z,893.10
2019-02-04T11:40:37.546Z,893.10
2019-02-04T11:41:37.554Z,893.04
2019-02-04T11:42:37.518Z,893.04
2019-02-04T11:43:37.498Z,893.03
2019-02-04T11:44:37.529Z,893.00
2019-02-04T11:45:37.492Z,892.97
2019-02-04T11:46:37.458Z,892.98
2019-02-04T11:47:37.445Z,892.98
2019-02-04T11:48:37.437Z,892.95
2019-02-04T11:49:37.417Z,892.95
2019-02-04T11:50:37.411Z,892.98
2019-02-04T11:51:37.402Z,892.95
2019-02-04T11:52:37.379Z,893.01
2019-02-04T11:53:37.372Z,893.00
2019-02-04T11:54:37.353Z,892.97
2019-02-04T11:55:37.344Z,892.92
2019-02-04T11:56:37.329Z,892.94
2019-02-04T11:57:37.319Z,892.92
2019-02-04T11:58:37.297Z,892.90
2019-02-04T11:59:37.291Z,892.87
2019-02-04T12:00:37.280Z,892.87
2019-02-04T12:01:37.264Z,892.82
2019-02-04T12:02:37.254Z,892.83
2019-02-04T12:03:37.237Z,892.81
2019-02-04T12:04:37.225Z,892.80
2019-02-04T12:05:37.206Z,892.83
2019-02-04T12:06:37.202Z,892.80
2019-02-04T12:07:37.185Z,892.81
2019-02-04T12:08:37.174Z,892.81
2019-02-04T12:09:37.161Z,892.79
2019-02-04T12:10:37.149Z,892.79
2019-02-04T12:11:37.136Z,892.78
2019-02-04T12:12:37.214Z,892.79
2019-02-04T12:13:37.113Z,892.82
2019-02-04T12:14:37.099Z,892.78
2019-02-04T12:15:37.088Z,892.82
2019-02-04T12:16:37.066Z,892.86
2019-02-04T12:17:37.058Z,892.79
2019-02-04T12:18:37.039Z,892.79
2019-02-04T12:19:37.039Z,892.76
2019-02-04T12:20:39.799Z,892.79
2019-02-04T12:21:37.008Z,892.79
2019-02-04T12:22:36.995Z,892.76
2019-02-04T12:23:36.983Z,892.76
2019-02-04T12:24:36.971Z,892.81
2019-02-04T12:25:36.962Z,892.80
2019-02-04T12:26:36.944Z,892.79
2019-02-04T12:27:36.936Z,892.80
2019-02-04T12:28:36.924Z,892.81